Terminal Aerodrome Forecast
Issued by NWS

Home | Current Version | Previous Version | Text Only | Print | Product List | Glossary On
Versions: 1 2 3 4 5 6 7 8 9 10 11 12 13 14 15
000
FTUS45 KBOI 052320
TAFJER
TAF
KJER 052320Z 0600/0624 11012G20KT P6SM SCT100 OVC200
     FM060400 08010KT P6SM BKN120 OVC200
     FM061000 05015KT P6SM SCT100 BKN200
     FM061800 05015G25KT P6SM VCTS SCT060CB BKN100 PROB30 0620/0624
      VRB30KT P6SM TSRAGS OVC050CB=

USA.gov is the U.S. government's official web portal to all federal, state and local government web resources and services.